Freedom of the Seas — C6UZ7 — position and weather

sailwx.info

Track history (hours):
 
Tides and Currents Weather Stations Pressure Air Temp Water Temp Dewpoint Dewpoint Depression Visibility Wind Speed Wind Dir Waves Ship Positions

Freedom of the Seas

Last reported at 2018-Jul-20 10:00 UTC. Time now 2018-Jul-22 06:58 UTC.
Position N 15°24' W 062°06'.

Length 339 m; draft 9 m.

Type: Passenger vessel. MMSI: 309906000.

Wind from 080 at 26 knots

Barometer 1015.0 mb
Air temperature 27.0 ° C
Dewpoint 24.1 ° C
Water temperature 27.0 ° C

Date/timePositionNaut miles runAvg speedWind from/ knotsBaromVisibWave heightAir tempDewpointWater temp
2018-Jul-20 10:00N 15°24' W 062°06'5612.2 080 / 261015.0 27.024.127.0
2018-Jul-20 05:25N 14°40' W 061°30'917.7
2018-Jul-20 04:56N 14°34' W 061°24'1618.4
2018-Jul-20 04:05N 14°22' W 061°13'218.9
2018-Jul-20 03:58N 14°21' W 061°11'918.6
2018-Jul-20 03:29N 14°16' W 061°03'918.5
2018-Jul-20 03:00N 14°13' W 060°55'73 3.8
2018-Jul-19 08:00N 13°18' W 060°06'121 5.1 080 / 201015.0 27.024.127.0
2018-Jul-18 08:00N 14°48' W 061°30'132 5.5 050 / 321015.0 27.024.127.0
2018-Jul-17 08:00N 16°54' W 062°12'19 5.2 090 / 271018.0 27.024.127.0
2018-Jul-17 04:23N 16°44' W 062°29'39 1.9
2018-Jul-16 08:00N 17°00' W 063°06'36 6.5 080 / 201018.0 27.024.127.0
2018-Jul-16 02:31N 17°36' W 063°05'0 4.9
2018-Jul-16 02:28N 17°36' W 063°05'2 4.9
2018-Jul-16 02:00N 17°38' W 063°05'3 4.9
2018-Jul-16 01:27N 17°41' W 063°05'3 5.0
2018-Jul-16 00:56N 17°43' W 063°06'3 4.8
2018-Jul-16 00:24N 17°46' W 063°06'2 4.9
2018-Jul-15 23:56N 17°48' W 063°06'2 5.0
2018-Jul-15 23:27N 17°51' W 063°06'3 5.1
2018-Jul-15 22:56N 17°53' W 063°06'3 4.9
2018-Jul-15 22:19N 17°56' W 063°06'2 5.7
2018-Jul-15 21:56N 17°59' W 063°06'2 4.5
2018-Jul-15 21:28N 18°00' W 063°05'1 0.1
2018-Jul-15 11:33N 18°00' W 063°04'1 7.4
2018-Jul-15 11:28N 18°00' W 063°04'814.1
2018-Jul-15 10:53N 18°00' W 063°13'615.7
2018-Jul-15 10:30N 18°02' W 063°19'815.7
2018-Jul-15 09:59N 18°02' W 063°28'815.7
2018-Jul-15 09:29N 18°03' W 063°36'2315.5
2018-Jul-15 08:00N 18°06' W 064°00'29 0.6 060 / 251017.0 27.024.127.0
2018-Jul-13 08:00N 18°06' W 064°30'63 8.0 100 / 151020.0 27.022.627.0
2018-Jul-13 00:05N 18°02' W 063°24'1 7.7
2018-Jul-12 23:59N 18°02' W 063°23'4 8.4
2018-Jul-12 23:30N 18°01' W 063°19'4 8.4
2018-Jul-12 22:59N 18°01' W 063°14'4 8.4
2018-Jul-12 22:30N 18°00' W 063°10'5 8.6
2018-Jul-12 21:58N 18°00' W 063°05'2 0.2
2018-Jul-12 11:43N 18°01' W 063°03'2 6.2
2018-Jul-12 11:26N 18°00' W 063°05'510.4
2018-Jul-12 11:00N 17°58' W 063°09'712.8
2018-Jul-12 10:29N 17°55' W 063°15'612.6
2018-Jul-12 10:00N 17°53' W 063°21'712.5
2018-Jul-12 09:29N 17°49' W 063°27'2818.7
2018-Jul-12 08:00N 17°30' W 063°48'33313.9 080 / 201017.0 27.024.127.0
2018-Jul-11 08:00N 13°36' W 067°54'   090 / 271013.0 27.024.127.0
Track history (hours):
 
Tides and Currents Weather Stations Pressure Air Temp Water Temp Dewpoint Dewpoint Depression Visibility Wind Speed Wind Dir Waves Ship Positions

Freedom of the Seas

Last reported at 2018-Jul-20 10:00 UTC. Time now 2018-Jul-22 06:58 UTC.
Position N 15°24' W 062°06'.

Length 339 m; draft 9 m.

Type: Passenger vessel. MMSI: 309906000.

Wind from 080 at 26 knots

Barometer 1015.0 mb
Air temperature 27.0 ° C
Dewpoint 24.1 ° C
Water temperature 27.0 ° C

Date/timePositionNaut miles runAvg speedWind from/ knotsBaromVisibWave heightAir tempDewpointWater temp
2018-Jul-20 10:00N 15°24' W 062°06'5612.2 080 / 261015.0 27.024.127.0
2018-Jul-20 05:25N 14°40' W 061°30'917.7
2018-Jul-20 04:56N 14°34' W 061°24'1618.4
2018-Jul-20 04:05N 14°22' W 061°13'218.9
2018-Jul-20 03:58N 14°21' W 061°11'918.6
2018-Jul-20 03:29N 14°16' W 061°03'918.5
2018-Jul-20 03:00N 14°13' W 060°55'73 3.8
2018-Jul-19 08:00N 13°18' W 060°06'121 5.1 080 / 201015.0 27.024.127.0
2018-Jul-18 08:00N 14°48' W 061°30'132 5.5 050 / 321015.0 27.024.127.0
2018-Jul-17 08:00N 16°54' W 062°12'19 5.2 090 / 271018.0 27.024.127.0
2018-Jul-17 04:23N 16°44' W 062°29'39 1.9
2018-Jul-16 08:00N 17°00' W 063°06'36 6.5 080 / 201018.0 27.024.127.0
2018-Jul-16 02:31N 17°36' W 063°05'0 4.9
2018-Jul-16 02:28N 17°36' W 063°05'2 4.9
2018-Jul-16 02:00N 17°38' W 063°05'3 4.9
2018-Jul-16 01:27N 17°41' W 063°05'3 5.0
2018-Jul-16 00:56N 17°43' W 063°06'3 4.8
2018-Jul-16 00:24N 17°46' W 063°06'2 4.9
2018-Jul-15 23:56N 17°48' W 063°06'2 5.0
2018-Jul-15 23:27N 17°51' W 063°06'3 5.1
2018-Jul-15 22:56N 17°53' W 063°06'3 4.9
2018-Jul-15 22:19N 17°56' W 063°06'2 5.7
2018-Jul-15 21:56N 17°59' W 063°06'2 4.5
2018-Jul-15 21:28N 18°00' W 063°05'1 0.1
2018-Jul-15 11:33N 18°00' W 063°04'1 7.4
2018-Jul-15 11:28N 18°00' W 063°04'814.1
2018-Jul-15 10:53N 18°00' W 063°13'615.7
2018-Jul-15 10:30N 18°02' W 063°19'815.7
2018-Jul-15 09:59N 18°02' W 063°28'815.7
2018-Jul-15 09:29N 18°03' W 063°36'2315.5
2018-Jul-15 08:00N 18°06' W 064°00'29 0.6 060 / 251017.0 27.024.127.0
2018-Jul-13 08:00N 18°06' W 064°30'63 8.0 100 / 151020.0 27.022.627.0
2018-Jul-13 00:05N 18°02' W 063°24'1 7.7
2018-Jul-12 23:59N 18°02' W 063°23'4 8.4
2018-Jul-12 23:30N 18°01' W 063°19'4 8.4
2018-Jul-12 22:59N 18°01' W 063°14'4 8.4
2018-Jul-12 22:30N 18°00' W 063°10'5 8.6
2018-Jul-12 21:58N 18°00' W 063°05'2 0.2
2018-Jul-12 11:43N 18°01' W 063°03'2 6.2
2018-Jul-12 11:26N 18°00' W 063°05'510.4
2018-Jul-12 11:00N 17°58' W 063°09'712.8
2018-Jul-12 10:29N 17°55' W 063°15'612.6
2018-Jul-12 10:00N 17°53' W 063°21'712.5
2018-Jul-12 09:29N 17°49' W 063°27'2818.7
2018-Jul-12 08:00N 17°30' W 063°48'33313.9 080 / 201017.0 27.024.127.0
2018-Jul-11 08:00N 13°36' W 067°54'   090 / 271013.0 27.024.127.0

Dump ship's entire track history